sensor_id;sensor_type;location;lat;lon;timestamp;pressure;altitude;pressure_sealevel;temperature;humidity
20228;BME280;12195;55.790;37.572;2022-10-18T00:00:50;100374.35;;;9.61;77.01
20228;BME280;12195;55.790;37.572;2022-10-18T00:03:22;100378.70;;;9.62;77.04
20228;BME280;12195;55.790;37.572;2022-10-18T00:05:54;100374.30;;;9.63;77.07
20228;BME280;12195;55.790;37.572;2022-10-18T00:08:28;100371.67;;;9.63;77.17
20228;BME280;12195;55.790;37.572;2022-10-18T00:11:01;100368.08;;;9.65;77.06
20228;BME280;12195;55.790;37.572;2022-10-18T00:13:33;100346.86;;;9.71;76.88
20228;BME280;12195;55.790;37.572;2022-10-18T00:16:14;100356.26;;;9.77;76.44
20228;BME280;12195;55.790;37.572;2022-10-18T00:18:43;100362.33;;;9.77;76.46
20228;BME280;12195;55.790;37.572;2022-10-18T00:21:19;100355.98;;;9.83;76.14
20228;BME280;12195;55.790;37.572;2022-10-18T00:23:53;100351.61;;;9.83;76.10
20228;BME280;12195;55.790;37.572;2022-10-18T00:26:27;100334.08;;;9.84;76.13
20228;BME280;12195;55.790;37.572;2022-10-18T00:29:02;100337.62;;;9.83;76.02
20228;BME280;12195;55.790;37.572;2022-10-18T00:31:36;100335.01;;;9.83;76.01
20228;BME280;12195;55.790;37.572;2022-10-18T00:34:13;100332.09;;;9.90;75.39
20228;BME280;12195;55.790;37.572;2022-10-18T00:36:46;100327.67;;;9.91;75.40
20228;BME280;12195;55.790;37.572;2022-10-18T00:39:19;100324.22;;;9.90;75.33
20228;BME280;12195;55.790;37.572;2022-10-18T00:41:52;100324.98;;;9.92;75.25
20228;BME280;12195;55.790;37.572;2022-10-18T00:47:06;100313.78;;;9.89;75.15
20228;BME280;12195;55.790;37.572;2022-10-18T00:49:52;100307.80;;;9.85;75.09
20228;BME280;12195;55.790;37.572;2022-10-18T00:52:20;100309.70;;;9.82;75.14
20228;BME280;12195;55.790;37.572;2022-10-18T00:54:52;100301.13;;;9.78;75.34
20228;BME280;12195;55.790;37.572;2022-10-18T00:57:26;100307.36;;;9.76;75.25
20228;BME280;12195;55.790;37.572;2022-10-18T00:59:58;100292.39;;;9.78;75.15
20228;BME280;12195;55.790;37.572;2022-10-18T01:02:31;100293.31;;;9.77;74.91
20228;BME280;12195;55.790;37.572;2022-10-18T01:05:04;100289.17;;;9.71;74.87
20228;BME280;12195;55.790;37.572;2022-10-18T01:10:34;100293.02;;;9.63;74.93
20228;BME280;12195;55.790;37.572;2022-10-18T01:15:58;100297.43;;;9.62;74.74
20228;BME280;12195;55.790;37.572;2022-10-18T01:21:50;100300.67;;;9.47;75.11
20228;BME280;12195;55.790;37.572;2022-10-18T01:24:54;100287.83;;;9.41;75.18
20228;BME280;12195;55.790;37.572;2022-10-18T01:30:25;100294.22;;;9.34;75.54
20228;BME280;12195;55.790;37.572;2022-10-18T01:33:01;100288.87;;;9.37;75.40
20228;BME280;12195;55.790;37.572;2022-10-18T01:35:36;100286.25;;;9.37;75.33
20228;BME280;12195;55.790;37.572;2022-10-18T01:38:10;100289.59;;;9.41;75.43
20228;BME280;12195;55.790;37.572;2022-10-18T01:40:46;100286.91;;;9.42;75.18
20228;BME280;12195;55.790;37.572;2022-10-18T01:43:20;100275.50;;;9.43;75.35
20228;BME280;12195;55.790;37.572;2022-10-18T01:45:54;100270.20;;;9.45;75.15
20228;BME280;12195;55.790;37.572;2022-10-18T01:48:29;100272.64;;;9.49;74.97
20228;BME280;12195;55.790;37.572;2022-10-18T01:51:01;100274.28;;;9.52;74.90
20228;BME280;12195;55.790;37.572;2022-10-18T01:53:34;100261.89;;;9.55;74.65
20228;BME280;12195;55.790;37.572;2022-10-18T01:56:21;100253.96;;;9.57;74.51
20228;BME280;12195;55.790;37.572;2022-10-18T01:58:56;100245.17;;;9.58;74.33
20228;BME280;12195;55.790;37.572;2022-10-18T02:01:41;100257.36;;;9.59;74.16
20228;BME280;12195;55.790;37.572;2022-10-18T02:07:37;100259.86;;;9.62;73.81
20228;BME280;12195;55.790;37.572;2022-10-18T02:09:45;100245.89;;;9.61;73.89
20228;BME280;12195;55.790;37.572;2022-10-18T02:12:16;100243.42;;;9.58;74.04
20228;BME280;12195;55.790;37.572;2022-10-18T02:14:51;100239.22;;;9.54;74.30
20228;BME280;12195;55.790;37.572;2022-10-18T02:17:27;100238.30;;;9.55;74.33
20228;BME280;12195;55.790;37.572;2022-10-18T02:20:01;100231.41;;;9.53;74.42
20228;BME280;12195;55.790;37.572;2022-10-18T02:22:36;100235.73;;;9.54;74.50
20228;BME280;12195;55.790;37.572;2022-10-18T02:25:14;100236.48;;;9.57;74.16
20228;BME280;12195;55.790;37.572;2022-10-18T02:27:46;100245.17;;;9.58;74.03
20228;BME280;12195;55.790;37.572;2022-10-18T02:30:22;100239.81;;;9.61;73.78
20228;BME280;12195;55.790;37.572;2022-10-18T02:33:10;100234.75;;;9.56;74.22
20228;BME280;12195;55.790;37.572;2022-10-18T02:35:51;100222.63;;;9.54;74.22
20228;BME280;12195;55.790;37.572;2022-10-18T02:38:25;100218.12;;;9.57;74.09
20228;BME280;12195;55.790;37.572;2022-10-18T02:40:58;100212.94;;;9.56;74.17
20228;BME280;12195;55.790;37.572;2022-10-18T02:43:30;100211.16;;;9.56;74.15
20228;BME280;12195;55.790;37.572;2022-10-18T02:46:03;100199.84;;;9.56;74.04
20228;BME280;12195;55.790;37.572;2022-10-18T02:48:35;100201.59;;;9.55;74.09
20228;BME280;12195;55.790;37.572;2022-10-18T02:51:07;100203.30;;;9.56;74.04
20228;BME280;12195;55.790;37.572;2022-10-18T02:53:39;100198.11;;;9.55;73.99
20228;BME280;12195;55.790;37.572;2022-10-18T02:56:11;100190.34;;;9.53;74.02
20228;BME280;12195;55.790;37.572;2022-10-18T02:58:43;100184.29;;;9.51;74.12
20228;BME280;12195;55.790;37.572;2022-10-18T03:01:15;100184.23;;;9.53;73.77
20228;BME280;12195;55.790;37.572;2022-10-18T03:03:49;100178.98;;;9.53;73.95
20228;BME280;12195;55.790;37.572;2022-10-18T03:06:21;100173.87;;;9.50;74.11
20228;BME280;12195;55.790;37.572;2022-10-18T03:08:53;100171.30;;;9.48;74.10
20228;BME280;12195;55.790;37.572;2022-10-18T03:11:25;100166.93;;;9.49;73.91
20228;BME280;12195;55.790;37.572;2022-10-18T03:13:57;100171.38;;;9.47;74.03
20228;BME280;12195;55.790;37.572;2022-10-18T03:16:29;100160.98;;;9.45;74.07
20228;BME280;12195;55.790;37.572;2022-10-18T03:19:01;100156.45;;;9.49;73.51
20228;BME280;12195;55.790;37.572;2022-10-18T03:21:34;100150.40;;;9.47;73.79
20228;BME280;12195;55.790;37.572;2022-10-18T03:24:06;100149.56;;;9.46;73.89
20228;BME280;12195;55.790;37.572;2022-10-18T03:26:38;100145.96;;;9.49;73.79
20228;BME280;12195;55.790;37.572;2022-10-18T03:29:11;100126.04;;;9.45;73.68
20228;BME280;12195;55.790;37.572;2022-10-18T03:31:43;100126.23;;;9.40;73.82
20228;BME280;12195;55.790;37.572;2022-10-18T03:34:15;100127.38;;;9.35;74.01
20228;BME280;12195;55.790;37.572;2022-10-18T03:36:48;100133.72;;;9.29;74.28
20228;BME280;12195;55.790;37.572;2022-10-18T03:39:20;100116.55;;;9.22;74.40
20228;BME280;12195;55.790;37.572;2022-10-18T03:41:53;100117.66;;;9.17;74.71
20228;BME280;12195;55.790;37.572;2022-10-18T03:44:25;100113.40;;;9.14;74.77
20228;BME280;12195;55.790;37.572;2022-10-18T03:46:57;100097.09;;;9.08;75.00
20228;BME280;12195;55.790;37.572;2022-10-18T03:49:29;100098.73;;;9.10;75.06
20228;BME280;12195;55.790;37.572;2022-10-18T03:52:02;100108.44;;;9.08;75.06
20228;BME280;12195;55.790;37.572;2022-10-18T03:54:34;100097.09;;;9.08;74.86
20228;BME280;12195;55.790;37.572;2022-10-18T03:57:07;100086.73;;;9.05;75.15
20228;BME280;12195;55.790;37.572;2022-10-18T03:59:39;100080.67;;;9.04;75.34
20228;BME280;12195;55.790;37.572;2022-10-18T04:02:11;100085.22;;;8.99;75.42
20228;BME280;12195;55.790;37.572;2022-10-18T04:04:43;100077.36;;;8.99;75.60
20228;BME280;12195;55.790;37.572;2022-10-18T04:07:15;100070.09;;;9.06;75.67
20228;BME280;12195;55.790;37.572;2022-10-18T04:09:48;100082.95;;;9.12;75.55
20228;BME280;12195;55.790;37.572;2022-10-18T04:12:20;100069.57;;;9.18;75.35
20228;BME280;12195;55.790;37.572;2022-10-18T04:14:53;100063.16;;;9.25;75.17
20228;BME280;12195;55.790;37.572;2022-10-18T04:17:25;100056.87;;;9.29;74.93
20228;BME280;12195;55.790;37.572;2022-10-18T04:19:57;100061.86;;;9.35;74.69
20228;BME280;12195;55.790;37.572;2022-10-18T04:22:31;100053.71;;;9.41;74.46
20228;BME280;12195;55.790;37.572;2022-10-18T04:25:03;100047.28;;;9.48;74.25
20228;BME280;12195;55.790;37.572;2022-10-18T04:27:36;100047.00;;;9.54;74.07
20228;BME280;12195;55.790;37.572;2022-10-18T04:30:09;100051.05;;;9.61;74.10
20228;BME280;12195;55.790;37.572;2022-10-18T04:32:43;100046.64;;;9.61;73.88
20228;BME280;12195;55.790;37.572;2022-10-18T04:35:15;100041.33;;;9.63;73.62
20228;BME280;12195;55.790;37.572;2022-10-18T04:37:52;100034.33;;;9.63;73.50
20228;BME280;12195;55.790;37.572;2022-10-18T04:40:26;100035.19;;;9.64;73.55
20228;BME280;12195;55.790;37.572;2022-10-18T04:42:59;100035.19;;;9.64;73.51
20228;BME280;12195;55.790;37.572;2022-10-18T04:45:32;100031.70;;;9.63;73.68
20228;BME280;12195;55.790;37.572;2022-10-18T04:48:07;100026.53;;;9.62;73.59
20228;BME280;12195;55.790;37.572;2022-10-18T04:50:40;100028.29;;;9.61;73.72
20228;BME280;12195;55.790;37.572;2022-10-18T04:53:17;100017.73;;;9.63;73.70
20228;BME280;12195;55.790;37.572;2022-10-18T04:55:51;100009.80;;;9.64;73.64
20228;BME280;12195;55.790;37.572;2022-10-18T04:58:25;100015.91;;;9.65;74.03
20228;BME280;12195;55.790;37.572;2022-10-18T05:01:05;100012.16;;;9.70;74.03
20228;BME280;12195;55.790;37.572;2022-10-18T05:03:39;100010.94;;;9.77;73.90
20228;BME280;12195;55.790;37.572;2022-10-18T05:06:20;100006.25;;;9.84;73.54
20228;BME280;12195;55.790;37.572;2022-10-18T05:08:54;100005.05;;;9.91;73.10
20228;BME280;12195;55.790;37.572;2022-10-18T05:11:27;100006.54;;;9.96;72.94
20228;BME280;12195;55.790;37.572;2022-10-18T05:14:04;100010.78;;;9.99;72.61
20228;BME280;12195;55.790;37.572;2022-10-18T05:16:40;100012.41;;;10.01;72.93
20228;BME280;12195;55.790;37.572;2022-10-18T05:19:15;100011.52;;;10.02;72.95
20228;BME280;12195;55.790;37.572;2022-10-18T05:21:51;100014.90;;;10.04;72.77
20228;BME280;12195;55.790;37.572;2022-10-18T05:24:27;100018.18;;;10.09;72.43
20228;BME280;12195;55.790;37.572;2022-10-18T05:26:59;100025.91;;;10.12;72.70
20228;BME280;12195;55.790;37.572;2022-10-18T05:29:32;100031.02;;;10.15;72.43
20228;BME280;12195;55.790;37.572;2022-10-18T05:32:07;100037.76;;;10.21;72.16
20228;BME280;12195;55.790;37.572;2022-10-18T05:34:41;100041.14;;;10.23;71.76
20228;BME280;12195;55.790;37.572;2022-10-18T05:37:15;100030.58;;;10.24;71.86
20228;BME280;12195;55.790;37.572;2022-10-18T05:39:50;100024.25;;;10.28;71.61
20228;BME280;12195;55.790;37.572;2022-10-18T05:42:23;100015.59;;;10.26;71.81
20228;BME280;12195;55.790;37.572;2022-10-18T05:44:58;100030.39;;;10.46;71.53
20228;BME280;12195;55.790;37.572;2022-10-18T05:47:44;100023.19;;;10.32;71.29
20228;BME280;12195;55.790;37.572;2022-10-18T05:50:18;100028.50;;;10.31;71.11
20228;BME280;12195;55.790;37.572;2022-10-18T05:52:56;100021.62;;;10.28;71.46
20228;BME280;12195;55.790;37.572;2022-10-18T05:56:06;100021.77;;;10.25;71.79
20228;BME280;12195;55.790;37.572;2022-10-18T05:58:42;100009.58;;;10.24;71.68
20228;BME280;12195;55.790;37.572;2022-10-18T06:01:24;100003.54;;;10.22;71.63
20228;BME280;12195;55.790;37.572;2022-10-18T06:04:00;100007.09;;;10.21;71.97
20228;BME280;12195;55.790;37.572;2022-10-18T06:06:41;100004.47;;;10.21;72.07
20228;BME280;12195;55.790;37.572;2022-10-18T06:09:18;99995.77;;;10.21;72.29
20228;BME280;12195;55.790;37.572;2022-10-18T06:11:55;99987.80;;;10.22;72.45
20228;BME280;12195;55.790;37.572;2022-10-18T06:14:31;99986.11;;;10.21;72.50
20228;BME280;12195;55.790;37.572;2022-10-18T06:17:43;99968.67;;;10.20;72.45
20228;BME280;12195;55.790;37.572;2022-10-18T06:20:34;99966.80;;;10.22;72.24
20228;BME280;12195;55.790;37.572;2022-10-18T06:23:08;99964.90;;;10.26;72.43
20228;BME280;12195;55.790;37.572;2022-10-18T06:25:40;99955.33;;;10.25;72.41
20228;BME280;12195;55.790;37.572;2022-10-18T06:28:18;99949.23;;;10.24;72.11
20228;BME280;12195;55.790;37.572;2022-10-18T06:30:53;99938.80;;;10.23;72.22
20228;BME280;12195;55.790;37.572;2022-10-18T06:33:25;99937.11;;;10.22;72.56
20228;BME280;12195;55.790;37.572;2022-10-18T06:35:59;99926.68;;;10.20;72.31
20228;BME280;12195;55.790;37.572;2022-10-18T06:38:32;99915.40;;;10.18;72.69
20228;BME280;12195;55.790;37.572;2022-10-18T06:41:05;99900.91;;;10.11;73.46
20228;BME280;12195;55.790;37.572;2022-10-18T06:43:39;99890.05;;;10.00;74.09
20228;BME280;12195;55.790;37.572;2022-10-18T06:46:11;99872.91;;;9.93;74.98
20228;BME280;12195;55.790;37.572;2022-10-18T06:48:43;99850.70;;;9.83;75.72
20228;BME280;12195;55.790;37.572;2022-10-18T06:51:15;99835.17;;;9.79;76.63
20228;BME280;12195;55.790;37.572;2022-10-18T06:53:48;99811.65;;;9.77;76.74
20228;BME280;12195;55.790;37.572;2022-10-18T06:56:22;99821.52;;;9.72;77.49
20228;BME280;12195;55.790;37.572;2022-10-18T06:58:54;99817.35;;;9.68;77.65
20228;BME280;12195;55.790;37.572;2022-10-18T07:01:26;99850.81;;;9.63;78.09
20228;BME280;12195;55.790;37.572;2022-10-18T07:03:59;99808.33;;;9.57;78.62
20228;BME280;12195;55.790;37.572;2022-10-18T07:06:31;99790.19;;;9.52;79.42
20228;BME280;12195;55.790;37.572;2022-10-18T07:09:03;99799.98;;;9.49;79.68
20228;BME280;12195;55.790;37.572;2022-10-18T07:11:36;99777.41;;;9.46;79.87
20228;BME280;12195;55.790;37.572;2022-10-18T07:14:08;99780.16;;;9.43;80.46
20228;BME280;12195;55.790;37.572;2022-10-18T07:16:42;99753.95;;;9.43;81.18
20228;BME280;12195;55.790;37.572;2022-10-18T07:19:15;99746.09;;;9.43;81.30
20228;BME280;12195;55.790;37.572;2022-10-18T07:21:47;99733.68;;;9.47;81.28
20228;BME280;12195;55.790;37.572;2022-10-18T07:24:19;99737.95;;;9.49;82.09
20228;BME280;12195;55.790;37.572;2022-10-18T07:26:52;99734.25;;;9.53;82.54
20228;BME280;12195;55.790;37.572;2022-10-18T07:29:25;99711.42;;;9.55;83.13
20228;BME280;12195;55.790;37.572;2022-10-18T07:31:57;99706.86;;;9.59;83.09
20228;BME280;12195;55.790;37.572;2022-10-18T07:34:29;99702.15;;;9.65;83.32
20228;BME280;12195;55.790;37.572;2022-10-18T07:37:01;99681.89;;;9.69;83.20
20228;BME280;12195;55.790;37.572;2022-10-18T07:39:33;99654.51;;;9.74;83.43
20228;BME280;12195;55.790;37.572;2022-10-18T07:42:05;99646.39;;;9.79;84.06
20228;BME280;12195;55.790;37.572;2022-10-18T07:44:38;99635.74;;;9.82;84.04
20228;BME280;12195;55.790;37.572;2022-10-18T07:47:10;99617.05;;;9.88;83.71
20228;BME280;12195;55.790;37.572;2022-10-18T07:49:42;99610.05;;;9.88;83.41
20228;BME280;12195;55.790;37.572;2022-10-18T07:52:14;99604.80;;;9.88;83.61
20228;BME280;12195;55.790;37.572;2022-10-18T07:54:46;99583.81;;;9.88;83.74
20228;BME280;12195;55.790;37.572;2022-10-18T07:57:19;99575.02;;;9.89;84.00
20228;BME280;12195;55.790;37.572;2022-10-18T07:59:53;99566.24;;;9.90;83.88
20228;BME280;12195;55.790;37.572;2022-10-18T08:02:27;99557.44;;;9.91;83.64
20228;BME280;12195;55.790;37.572;2022-10-18T08:04:59;99546.95;;;9.91;83.76
20228;BME280;12195;55.790;37.572;2022-10-18T08:07:31;99531.21;;;9.91;83.68
20228;BME280;12195;55.790;37.572;2022-10-18T08:10:04;99517.23;;;9.91;84.06
20228;BME280;12195;55.790;37.572;2022-10-18T08:12:36;99511.17;;;9.90;84.22
20228;BME280;12195;55.790;37.572;2022-10-18T08:15:09;99519.78;;;9.92;84.25
20228;BME280;12195;55.790;37.572;2022-10-18T08:17:41;99486.47;;;9.94;84.16
20228;BME280;12195;55.790;37.572;2022-10-18T08:20:17;99475.03;;;9.95;83.95
20228;BME280;12195;55.790;37.572;2022-10-18T08:22:51;99435.78;;;9.94;84.36
20228;BME280;12195;55.790;37.572;2022-10-18T08:25:25;99404.97;;;9.97;84.22
20228;BME280;12195;55.790;37.572;2022-10-18T08:27:58;99401.44;;;9.98;83.96
20228;BME280;12195;55.790;37.572;2022-10-18T08:30:31;99371.48;;;10.02;84.27
20228;BME280;12195;55.790;37.572;2022-10-18T08:33:03;99338.13;;;10.04;84.16
20228;BME280;12195;55.790;37.572;2022-10-18T08:35:35;99327.63;;;10.04;83.98
20228;BME280;12195;55.790;37.572;2022-10-18T08:38:08;99329.34;;;10.05;83.03
20228;BME280;12195;55.790;37.572;2022-10-18T08:40:43;99300.55;;;10.04;83.37
20228;BME280;12195;55.790;37.572;2022-10-18T08:46:11;99261.67;;;9.96;83.14
20228;BME280;12195;55.790;37.572;2022-10-18T08:48:47;99258.48;;;9.91;83.37
20228;BME280;12195;55.790;37.572;2022-10-18T08:51:47;99234.97;;;9.90;82.68
20228;BME280;12195;55.790;37.572;2022-10-18T08:54:24;99222.20;;;9.84;83.54
20228;BME280;12195;55.790;37.572;2022-10-18T08:57:01;99230.07;;;9.84;83.46
20228;BME280;12195;55.790;37.572;2022-10-18T08:59:38;99234.66;;;9.80;83.94
20228;BME280;12195;55.790;37.572;2022-10-18T09:02:15;99233.92;;;9.78;84.23
20228;BME280;12195;55.790;37.572;2022-10-18T09:16:11;99288.98;;;9.78;84.58
20228;BME280;12195;55.790;37.572;2022-10-18T09:19:04;99271.45;;;9.79;85.15
20228;BME280;12195;55.790;37.572;2022-10-18T09:21:46;99253.87;;;9.81;85.69
20228;BME280;12195;55.790;37.572;2022-10-18T09:27:01;99236.82;;;9.88;85.50
20228;BME280;12195;55.790;37.572;2022-10-18T09:35:27;99210.64;;;10.02;86.15
20228;BME280;12195;55.790;37.572;2022-10-18T09:38:04;99188.39;;;10.09;86.39
20228;BME280;12195;55.790;37.572;2022-10-18T09:40:45;99197.55;;;10.16;86.82
20228;BME280;12195;55.790;37.572;2022-10-18T09:43:21;99197.10;;;10.23;87.13
20228;BME280;12195;55.790;37.572;2022-10-18T09:45:54;99203.63;;;10.30;87.25
20228;BME280;12195;55.790;37.572;2022-10-18T09:48:30;99191.83;;;10.37;87.24
20228;BME280;12195;55.790;37.572;2022-10-18T09:51:11;99172.24;;;10.43;87.33
20228;BME280;12195;55.790;37.572;2022-10-18T09:54:19;99180.02;;;10.44;87.10
20228;BME280;12195;55.790;37.572;2022-10-18T09:59:47;99164.06;;;10.47;86.72
20228;BME280;12195;55.790;37.572;2022-10-18T10:02:21;99148.22;;;10.49;86.77
20228;BME280;12195;55.790;37.572;2022-10-18T10:04:53;99144.19;;;10.57;87.31
20228;BME280;12195;55.790;37.572;2022-10-18T10:07:32;99142.10;;;10.62;87.46
20228;BME280;12195;55.790;37.572;2022-10-18T10:10:12;99128.79;;;10.65;87.20
20228;BME280;12195;55.790;37.572;2022-10-18T10:12:42;99123.44;;;10.67;87.04
20228;BME280;12195;55.790;37.572;2022-10-18T10:15:21;99123.35;;;10.68;86.74
20228;BME280;12195;55.790;37.572;2022-10-18T10:17:59;99114.53;;;10.69;86.83
20228;BME280;12195;55.790;37.572;2022-10-18T10:23:19;99102.88;;;10.73;86.75
20228;BME280;12195;55.790;37.572;2022-10-18T10:26:03;99093.86;;;10.77;86.90
20228;BME280;12195;55.790;37.572;2022-10-18T10:28:40;99085.89;;;10.79;86.82
20228;BME280;12195;55.790;37.572;2022-10-18T10:34:18;99087.37;;;10.83;86.89
20228;BME280;12195;55.790;37.572;2022-10-18T10:36:53;99086.14;;;10.88;87.26
20228;BME280;12195;55.790;37.572;2022-10-18T10:39:23;99084.86;;;10.94;87.33
20228;BME280;12195;55.790;37.572;2022-10-18T10:41:56;99081.00;;;10.99;87.25
20228;BME280;12195;55.790;37.572;2022-10-18T10:44:30;99073.38;;;11.22;87.05
20228;BME280;12195;55.790;37.572;2022-10-18T10:47:04;99069.77;;;11.10;86.80
20228;BME280;12195;55.790;37.572;2022-10-18T10:49:50;99070.43;;;11.14;87.40
20228;BME280;12195;55.790;37.572;2022-10-18T10:52:19;99072.44;;;11.23;88.02
20228;BME280;12195;55.790;37.572;2022-10-18T10:54:54;99059.81;;;11.28;87.50
20228;BME280;12195;55.790;37.572;2022-10-18T10:57:31;99051.73;;;11.31;87.18
20228;BME280;12195;55.790;37.572;2022-10-18T11:00:03;99052.36;;;11.34;86.83
20228;BME280;12195;55.790;37.572;2022-10-18T11:02:36;99047.95;;;11.35;86.95
20228;BME280;12195;55.790;37.572;2022-10-18T11:05:25;99042.70;;;11.35;87.03
20228;BME280;12195;55.790;37.572;2022-10-18T11:08:01;99032.60;;;11.41;86.80
20228;BME280;12195;55.790;37.572;2022-10-18T11:10:33;99014.31;;;11.52;87.07
20228;BME280;12195;55.790;37.572;2022-10-18T11:16:57;99011.03;;;11.74;85.89
20228;BME280;12195;55.790;37.572;2022-10-18T11:19:58;99016.59;;;11.82;85.94
20228;BME280;12195;55.790;37.572;2022-10-18T11:22:24;99016.17;;;11.88;86.24
20228;BME280;12195;55.790;37.572;2022-10-18T11:24:58;99013.95;;;11.94;86.62
20228;BME280;12195;55.790;37.572;2022-10-18T11:33:24;99031.69;;;12.16;87.20
20228;BME280;12195;55.790;37.572;2022-10-18T11:36:47;99010.88;;;12.24;87.10
20228;BME280;12195;55.790;37.572;2022-10-18T11:41:42;99017.89;;;12.36;87.25
20228;BME280;12195;55.790;37.572;2022-10-18T11:44:31;99018.17;;;12.44;87.17
20228;BME280;12195;55.790;37.572;2022-10-18T11:47:12;99027.31;;;12.51;87.33
20228;BME280;12195;55.790;37.572;2022-10-18T11:50:11;99010.45;;;12.53;87.30
20228;BME280;12195;55.790;37.572;2022-10-18T11:58:58;99011.00;;;12.69;87.13
20228;BME280;12195;55.790;37.572;2022-10-18T12:01:34;99006.33;;;12.73;87.06
20228;BME280;12195;55.790;37.572;2022-10-18T12:04:19;99010.56;;;12.75;87.24
20228;BME280;12195;55.790;37.572;2022-10-18T12:06:54;99008.30;;;12.82;87.37
20228;BME280;12195;55.790;37.572;2022-10-18T12:09:38;99008.05;;;12.85;87.39
20228;BME280;12195;55.790;37.572;2022-10-18T12:12:30;99017.41;;;12.89;87.55
20228;BME280;12195;55.790;37.572;2022-10-18T12:15:05;99011.92;;;12.92;87.39
20228;BME280;12195;55.790;37.572;2022-10-18T12:17:40;99014.14;;;12.98;87.52
20228;BME280;12195;55.790;37.572;2022-10-18T12:23:04;99017.15;;;13.04;87.51
20228;BME280;12195;55.790;37.572;2022-10-18T12:25:39;99021.56;;;13.04;87.62
20228;BME280;12195;55.790;37.572;2022-10-18T12:34:00;99013.92;;;13.12;87.51
20228;BME280;12195;55.790;37.572;2022-10-18T12:39:39;99018.23;;;13.13;87.64
20228;BME280;12195;55.790;37.572;2022-10-18T12:45:51;99023.98;;;13.18;87.47
20228;BME280;12195;55.790;37.572;2022-10-18T12:47:36;99027.59;;;13.17;87.55
20228;BME280;12195;55.790;37.572;2022-10-18T12:50:29;99024.13;;;13.16;87.73
20228;BME280;12195;55.790;37.572;2022-10-18T12:53:14;99023.28;;;13.16;88.08
20228;BME280;12195;55.790;37.572;2022-10-18T12:55:42;99023.28;;;13.16;88.02
20228;BME280;12195;55.790;37.572;2022-10-18T13:06:01;99012.25;;;13.22;88.41
20228;BME280;12195;55.790;37.572;2022-10-18T13:08:39;99024.36;;;13.24;88.67
20228;BME280;12195;55.790;37.572;2022-10-18T13:11:37;99018.04;;;13.27;88.53
20228;BME280;12195;55.790;37.572;2022-10-18T13:14:18;99020.53;;;13.28;88.31
20228;BME280;12195;55.790;37.572;2022-10-18T13:23:08;99040.58;;;13.31;88.11
20228;BME280;12195;55.790;37.572;2022-10-18T13:28:38;99028.70;;;13.36;87.90
20228;BME280;12195;55.790;37.572;2022-10-18T13:34:14;99045.84;;;13.42;87.79
20228;BME280;12195;55.790;37.572;2022-10-18T13:36:30;99042.39;;;13.41;87.71
20228;BME280;12195;55.790;37.572;2022-10-18T13:39:03;99066.38;;;13.49;87.98
20228;BME280;12195;55.790;37.572;2022-10-18T13:44:35;99042.27;;;13.54;85.34
20228;BME280;12195;55.790;37.572;2022-10-18T13:50:22;99043.01;;;13.56;84.97
20228;BME280;12195;55.790;37.572;2022-10-18T13:53:05;99054.38;;;13.56;84.95
20228;BME280;12195;55.790;37.572;2022-10-18T13:58:53;99062.20;;;13.69;83.16
20228;BME280;12195;55.790;37.572;2022-10-18T14:04:30;99076.85;;;13.84;81.15
20228;BME280;12195;55.790;37.572;2022-10-18T14:06:59;99081.16;;;13.85;81.04
20228;BME280;12195;55.790;37.572;2022-10-18T14:09:54;99069.64;;;13.86;81.00
20228;BME280;12195;55.790;37.572;2022-10-18T14:12:39;99071.94;;;13.90;79.61
20228;BME280;12195;55.790;37.572;2022-10-18T14:15:17;99097.47;;;13.90;79.37
20228;BME280;12195;55.790;37.572;2022-10-18T14:17:51;99075.77;;;13.86;79.05
20228;BME280;12195;55.790;37.572;2022-10-18T14:23:06;99076.70;;;13.85;79.24
20228;BME280;12195;55.790;37.572;2022-10-18T14:25:38;99079.95;;;13.78;80.14
20228;BME280;12195;55.790;37.572;2022-10-18T14:28:22;99085.23;;;13.78;80.31
20228;BME280;12195;55.790;37.572;2022-10-18T14:31:04;99081.73;;;13.77;80.21
20228;BME280;12195;55.790;37.572;2022-10-18T14:33:52;99091.81;;;13.72;80.34
20228;BME280;12195;55.790;37.572;2022-10-18T14:36:26;99079.00;;;13.68;80.00
20228;BME280;12195;55.790;37.572;2022-10-18T14:39:00;99082.31;;;13.59;80.19
20228;BME280;12195;55.790;37.572;2022-10-18T14:41:35;99089.30;;;13.60;79.93
20228;BME280;12195;55.790;37.572;2022-10-18T14:46:51;99104.64;;;13.66;79.86
20228;BME280;12195;55.790;37.572;2022-10-18T14:49:23;99111.73;;;13.76;80.18
20228;BME280;12195;55.790;37.572;2022-10-18T14:51:58;99095.89;;;13.76;80.40
20228;BME280;12195;55.790;37.572;2022-10-18T14:54:36;99109.69;;;13.69;79.96
20228;BME280;12195;55.790;37.572;2022-10-18T14:57:27;99111.73;;;13.76;79.41
20228;BME280;12195;55.790;37.572;2022-10-18T14:59:52;99114.84;;;13.81;77.37
20228;BME280;12195;55.790;37.572;2022-10-18T15:02:28;99116.75;;;13.68;78.38
20228;BME280;12195;55.790;37.572;2022-10-18T15:05:19;99115.94;;;13.68;78.27
20228;BME280;12195;55.790;37.572;2022-10-18T15:07:51;99122.77;;;13.81;77.50
20228;BME280;12195;55.790;37.572;2022-10-18T15:10:30;99125.77;;;13.77;75.96
20228;BME280;12195;55.790;37.572;2022-10-18T15:13:04;99141.38;;;13.80;74.78
20228;BME280;12195;55.790;37.572;2022-10-18T15:15:38;99139.08;;;13.75;74.89
20228;BME280;12195;55.790;37.572;2022-10-18T15:18:19;99128.75;;;13.72;74.22
20228;BME280;12195;55.790;37.572;2022-10-18T15:23:42;99150.34;;;13.66;74.66
20228;BME280;12195;55.790;37.572;2022-10-18T15:26:25;99156.22;;;13.70;74.32
20228;BME280;12195;55.790;37.572;2022-10-18T15:28:59;99177.44;;;13.68;74.60
20228;BME280;12195;55.790;37.572;2022-10-18T15:31:36;99176.73;;;13.77;73.66
20228;BME280;12195;55.790;37.572;2022-10-18T15:34:21;99181.56;;;13.83;73.44
20228;BME280;12195;55.790;37.572;2022-10-18T15:36:54;99173.27;;;13.77;73.61